• Join FlightAware (Why Join?)
  • Login
  • US Flag 
11:14AM EDT


 

Airport Tracker/Info


-or-


 

Live Flight TrackerFlight Track Log ✈ SWA127 ✈ 12-Apr-2013 ✈ KPIT - KMCO

Flight Track Log - Related Links

Times and Time Zones

All times are in EDT time to prevent confusion due to time zone crossing. See the SWA127 flight status page for this flight to view local times or setup timezone preferences in your user account.

Time Position Orientation Groundspeed Altitude Reporting Facility
EDT Latitude Longitude Course Direction KTS MPH feet Rate Location/Type
06:38AM 40.4894 -80.1992 106° East 171 197 2,100  Level FAA TRACON SMA TRACON (SMA)
06:38AM 40.4853 -80.1803 106° East 178 205 2,700 1,560 Climbing FAA TRACON SMA TRACON (SMA)
06:39AM 40.4733 -80.1678 141° Southeast 181 208 3,200 1,920 Climbing FAA TRACON SMA TRACON (SMA)
06:39AM 40.4531 -80.1664 177° South 197 227 4,000 2,400 Climbing FAA TRACON SMA TRACON (SMA)
06:39AM 40.4361 -80.1706 191° South 199 229 4,800 1,800 Climbing FAA TRACON SMA TRACON (SMA)
06:40AM 40.4181 -80.1725 185° South 208 239 5,200 2,100 Climbing FAA TRACON SMA TRACON (SMA)
06:40AM 40.3947 -80.1744 184° South 216 249 6,200 2,820 Climbing FAA TRACON SMA TRACON (SMA)
06:40AM 40.3756 -80.1758 183° South 218 251 7,100 2,700 Climbing FAA TRACON SMA TRACON (SMA)
06:41AM 40.3564 -80.1778 184° South 225 259 8,000 3,000 Climbing FAA TRACON SMA TRACON (SMA)
06:41AM 40.3317 -80.1797 183° South 230 265 9,100 2,820 Climbing FAA TRACON SMA TRACON (SMA)
06:41AM 40.3114 -80.1817 184° South 236 272 9,900 1,920 Climbing FAA TRACON SMA TRACON (SMA)
06:42AM 40.2897 -80.1836 184° South 252 290 10,400 1,800 Climbing FAA TRACON SMA TRACON (SMA)
06:42AM 40.2669 -80.1858 184° South 263 303 11,100 1,800 Climbing FAA TRACON SMA TRACON (SMA)
06:42AM 40.2361 -80.1883 184° South 287 330 11,600 2,400 Climbing FAA TRACON SMA TRACON (SMA)
06:43AM 40.2103 -80.1908 184° South 294 338 12,700 4,200 Climbing FAA TRACON SMA TRACON (SMA)
06:43AM 40.1797 -80.1936 184° South 282 325 14,400 4,020 Climbing FAA TRACON SMA TRACON (SMA)
06:43AM 40.1567 -80.1956 184° South 270 311 15,400 1,500 Climbing FAA TRACON SMA TRACON (SMA)
06:44AM 40.1567 -80.1956 134° Southeast 270 311 15,400 1,260 Level FAA TRACON SMA TRACON (SMA)
06:44AM 40.0853 -80.2006 183° South 285 328 16,600 960 Climbing Cleveland Center
06:45AM 39.9978 -80.2064 183° South 295 339 17,000 180 Climbing Cleveland Center
06:46AM 39.9122 -80.2122 183° South 306 352 17,000  Level Cleveland Center
06:47AM 39.8331 -80.2208 185° South 306 352 17,000  Level Cleveland Center
06:48AM 39.7519 -80.2267 183° South 301 346 17,100 1,500 Climbing Cleveland Center
06:51AM 39.5614 -80.2433 184° South 290 334 22,400 1,620 Climbing Washington Center
06:52AM 39.4778 -80.2486 183° South 290 334 22,900 300 Climbing Washington Center
06:53AM 39.3942 -80.2567 184° South 290 334 23,000 540 Climbing Washington Center
06:54AM 39.3083 -80.2644 184° South 296 341 24,000 900 Climbing Washington Center
06:55AM 39.2181 -80.2800 188° South 313 360 24,800 840 Climbing Washington Center
06:56AM 39.1231 -80.3089 193° South 332 382 25,700 1,140 Climbing Washington Center
06:57AM 39.0261 -80.3372 193° South 346 398 27,100 1,200 Climbing Washington Center
06:58AM 38.9292 -80.3631 192° South 359 413 28,200 960 Climbing Washington Center
06:59AM 38.8300 -80.3939 194° South 364 419 29,100 720 Climbing Washington Center
07:00AM 38.7222 -80.4322 196° South 372 428 29,700 840 Climbing Washington Center
07:01AM 38.6081 -80.4644 192° South 390 449 30,800 1,440 Climbing Washington Center
07:02AM 38.5047 -80.4947 193° South 396 456 32,600 1,260 Climbing Washington Center
07:03AM 38.4014 -80.5250 193° South 391 450 33,400 600 Climbing Washington Center
07:04AM 38.2983 -80.5472 190° South 386 444 33,900 300 Climbing Washington Center
07:05AM 38.2061 -80.5572 185° South 375 432 34,000 -60 Climbing Washington Center
07:06AM 38.1011 -80.5739 187° South 375 432 33,800 -120 Descending Washington Center
07:07AM 37.9983 -80.5881 186° South 375 432 33,800 -240 Level Washington Center
07:08AM 37.8850 -80.6042 186° South 375 432 33,400 -420 Descending Washington Center
07:09AM 37.7819 -80.6211 187° South 375 432 33,000 -180 Descending Washington Center
07:11AM 37.5461 -80.6522 186° South 404 465 33,000  Level Atlanta Center
07:12AM 37.4403 -80.6672 186° South 404 465 33,000  Level Atlanta Center
07:13AM 37.3197 -80.6856 187° South 404 465 33,000  Level Atlanta Center
07:14AM 37.2097 -80.7006 186° South 404 465 33,000 -360 Level Atlanta Center
07:15AM 37.0997 -80.7131 185° South 404 465 32,300 -540 Descending Atlanta Center
07:16AM 37.0042 -80.7250 186° South 404 465 32,000 -180 Descending Atlanta Center
07:17AM 36.8958 -80.7347 184° South 404 465 32,000  Level Atlanta Center
07:18AM 36.7836 -80.7472 185° South 404 465 32,000  Level Atlanta Center
07:19AM 36.6775 -80.7567 184° South 397 457 32,000  Level Atlanta Center
07:20AM 36.5550 -80.7719 186° South 403 464 32,000  Level Atlanta Center
07:21AM 36.4425 -80.7817 184° South 403 464 32,000  Level Atlanta Center
07:22AM 36.3325 -80.7939 185° South 403 464 32,000  Level Atlanta Center
07:23AM 36.2200 -80.8064 185° South 403 464 32,000  Level Atlanta Center
07:24AM 36.1036 -80.8186 185° South 403 464 32,000  Level Atlanta Center
07:25AM 35.9933 -80.8333 186° South 403 464 32,000  Level Atlanta Center
07:26AM 35.8811 -80.8428 184° South 403 464 32,000  Level Atlanta Center
07:27AM 35.7686 -80.8550 185° South 408 470 32,000  Level Atlanta Center
07:28AM 35.6667 -80.8639 184° South 408 470 32,000  Level Atlanta Center
07:29AM 35.5525 -80.8786 186° South 408 470 32,000  Level Atlanta Center
07:30AM 35.4400 -80.8881 184° South 408 470 32,000  Level Atlanta Center
07:31AM 35.3256 -80.9053 187° South 413 475 32,000  Level Atlanta Center
07:32AM 35.2028 -80.9150 184° South 413 475 32,000  Level Atlanta Center
07:33AM 35.0906 -80.9292 186° South 408 470 32,000  Level Atlanta Center
07:34AM 34.9781 -80.9436 186° South 408 470 32,000  Level Atlanta Center
07:36AM 34.7292 -80.9625 184° South 410 472 32,000  Level Jacksonville Center
07:37AM 34.6147 -80.9778 186° South 405 466 32,000  Level Jacksonville Center
07:38AM 34.5042 -80.9878 184° South 405 466 32,000  Level Jacksonville Center
07:39AM 34.3919 -81.0053 187° South 412 474 32,000  Level Jacksonville Center
07:40AM 34.2794 -81.0128 183° South 407 468 32,000  Level Jacksonville Center
07:41AM 34.1669 -81.0228 184° South 407 468 32,000  Level Jacksonville Center
07:42AM 34.0544 -81.0353 185° South 407 468 32,000  Level Jacksonville Center
07:43AM 33.9397 -81.0478 185° South 407 468 32,000  Level Jacksonville Center
07:44AM 33.8292 -81.0550 183° South 407 468 32,000  Level Jacksonville Center
07:45AM 33.7147 -81.0700 186° South 407 468 32,000  Level Jacksonville Center
07:46AM 33.6042 -81.0797 184° South 407 468 32,000  Level Jacksonville Center
07:47AM 33.4917 -81.0894 184° South 407 468 32,000  Level Jacksonville Center
07:48AM 33.3811 -81.0992 184° South 407 468 32,000  Level Jacksonville Center
07:49AM 33.2728 -81.1064 183° South 407 468 32,000  Level Jacksonville Center
07:50AM 33.1581 -81.1186 185° South 407 468 32,000  Level Jacksonville Center
07:51AM 33.0497 -81.1256 183° South 407 468 32,000  Level Jacksonville Center
07:52AM 32.9350 -81.1353 184° South 407 468 32,000  Level Jacksonville Center
07:53AM 32.8244 -81.1447 184° South 407 468 32,000  Level Jacksonville Center
07:54AM 32.7100 -81.1544 184° South 407 468 32,000  Level Jacksonville Center
07:55AM 32.6100 -81.1664 186° South 405 466 32,000  Level Jacksonville Center
07:56AM 32.4867 -81.1736 183° South 405 466 32,000  Level Jacksonville Center
07:57AM 32.3742 -81.1831 184° South 405 466 32,000  Level Jacksonville Center
07:58AM 32.2617 -81.1900 183° South 405 466 32,000  Level Jacksonville Center
07:59AM 32.1511 -81.1994 184° South 405 466 32,000  Level Jacksonville Center
08:00AM 32.0383 -81.1967 179° South 406 467 32,000  Level Jacksonville Center
08:01AM 31.9339 -81.1936 179° South 406 467 32,000  Level Jacksonville Center
08:02AM 31.8128 -81.1886 178° South 399 459 32,000  Level Jacksonville Center
08:03AM 31.7000 -81.1858 179° South 405 466 32,000  Level Jacksonville Center
08:04AM 31.5997 -81.1828 179° South 406 467 32,000  Level Jacksonville Center
08:05AM 31.4742 -81.1778 178° South 406 467 32,000  Level Jacksonville Center
08:06AM 31.3742 -81.1747 179° South 407 468 32,000  Level Jacksonville Center
08:07AM 31.2467 -81.1744 180° South 407 468 32,000  Level Jacksonville Center
08:08AM 31.1339 -81.1694 178° South 403 464 32,000  Level Jacksonville Center
08:09AM 31.0211 -81.1667 179° South 403 464 32,000  Level Jacksonville Center
08:10AM 30.9042 -81.1614 178° South 403 464 32,000  Level Jacksonville Center
08:11AM 30.7892 -81.1586 179° South 410 472 32,000  Level Jacksonville Center
08:12AM 30.6722 -81.1536 178° South 415 478 32,000  Level Jacksonville Center
08:13AM 30.5594 -81.1533 180° South 415 478 32,000  Level Jacksonville Center
08:14AM 30.4403 -81.1481 178° South 420 483 32,000  Level Jacksonville Center
08:15AM 30.3214 -81.1431 178° South 420 483 32,000 -360 Level Jacksonville Center
08:16AM 30.2022 -81.1428 180° South 420 483 31,300 -960 Descending Jacksonville Center
08:17AM 30.0833 -81.1356 177° South 420 483 30,100 -1,320 Descending Jacksonville Center
08:18AM 29.9622 -81.1328 179° South 425 489 28,700 -1,620 Descending Jacksonville Center
08:19AM 29.8411 -81.1328 180° South 431 496 26,900 -2,340 Descending Jacksonville Center
08:20AM 29.7242 -81.1300 179° South 431 496 24,100 -2,520 Descending Jacksonville Center
08:21AM 29.6092 -81.1250 178° South 425 489 21,900 -2,040 Descending Jacksonville Center
08:22AM 29.5006 -81.1244 180° South 404 465 20,100 -2,340 Descending Jacksonville Center
08:23AM 29.4086 -81.1167 176° South 383 441 17,300 -2,880 Descending Jacksonville Center
08:24AM 29.3000 -81.1139 179° South 383 441 14,400 -2,280 Descending Jacksonville Center
08:25AM 29.1978 -81.1061 176° South 378 435 12,800 -1,260 Descending Jacksonville Center
08:26AM 29.1078 -81.1031 178° South 357 411 11,900 -480 Descending Jacksonville Center
08:27AM 29.0244 -81.0972 176° South 325 374 11,900 -480 Level Jacksonville Center
08:28AM 28.9447 -81.0822 171° South 303 349 11,000 -1,260 Descending Jacksonville Center
08:29AM 28.8667 -81.0667 170° South 288 331 9,500 -1,560 Descending Orlando TRACON
08:30AM 28.7833 -81.0500 170° South 264 304 8,100 -1,500 Descending Orlando TRACON
08:31AM 28.7500 -81.1167 240° Southwest 243 280 6,500 -1,500 Descending Orlando TRACON
08:32AM 28.7000 -81.1833 229° Southwest 236 272 5,000 -1,260 Descending Orlando TRACON
08:33AM 28.6500 -81.2333 221° Southwest 220 253 3,900 -1,020 Descending Orlando TRACON
08:34AM 28.6167 -81.2833 233° Southwest 201 231 2,900 -660 Descending Orlando TRACON
08:35AM 28.5667 -81.3000 196° South 168 193 2,600 -540 Descending Orlando TRACON
08:36AM 28.5333 -81.3000 180° South 152 175 1,900 -780 Descending Orlando TRACON
08:37AM 28.5000 -81.3000 180° South 116 133 1,300 -660 Descending Orlando TRACON
08:38AM 28.4667 -81.3000 180° South 122 140 700 -600 Descending Orlando TRACON
08:40AM 28.4294 -81.3090 180° South  Level Estimated
08:47AM 28.4294 -81.3090 180° South  Level Estimated
08:48AM 28.4294 -81.3090 180° South  Level Estimated
08:49AM 28.4294 -81.3090 180° South  Level Estimated
08:50AM 28.4294 -81.3090 180° South  Level Estimated